Time;durP1;ratioP1;P1;durP2;ratioP2;P2;SDS_P1;SDS_P2;PMS_P1;PMS_P2;Temp;Humidity;BMP_temperature;BMP_pressure;BME280_temperature;BME280_humidity;BME280_pressure;Samples;Min_cycle;Max_cycle;Signal;HPM_P1;HPM_P2
2021/06/28 00:01:15;;;;;;;5.00;3.80;;;19.60;99.90;;;;;;4993027;28;20052;-81
2021/06/28 00:03:42;;;;;;;4.60;4.10;;;19.50;99.90;;;;;;4993985;28;19952;-80
2021/06/28 00:06:08;;;;;;;5.20;3.90;;;19.50;99.90;;;;;;4992819;28;20042;-80
2021/06/28 00:08:35;;;;;;;5.70;4.60;;;19.50;99.90;;;;;;4993067;28;20430;-80
2021/06/28 00:11:01;;;;;;;4.50;3.90;;;19.40;99.90;;;;;;4992778;28;20442;-82
2021/06/28 00:13:27;;;;;;;;;;;19.40;99.90;;;;;;4992240;28;20507;-80
2021/06/28 00:15:53;;;;;;;5.50;4.50;;;19.50;99.90;;;;;;4992611;28;20052;-81
2021/06/28 00:18:19;;;;;;;5.40;3.80;;;19.50;99.90;;;;;;4993902;28;19906;-81
2021/06/28 00:20:46;;;;;;;6.35;3.78;;;19.50;99.90;;;;;;4992446;28;20439;-82
2021/06/28 00:23:12;;;;;;;6.55;4.22;;;19.60;99.90;;;;;;4992438;28;20453;-80
2021/06/28 00:25:38;;;;;;;7.90;4.60;;;19.60;99.90;;;;;;4992712;28;19992;-80
2021/06/28 00:28:04;;;;;;;;;;;19.60;99.90;;;;;;4992484;28;19910;-82
2021/06/28 00:30:32;;;;;;;4.80;4.07;;;19.60;99.90;;;;;;4992635;28;20009;-82
2021/06/28 00:32:57;;;;;;;;;;;19.70;99.90;;;;;;4992092;28;19906;-82
2021/06/28 00:35:23;;;;;;;5.60;3.70;;;19.70;99.90;;;;;;4992290;28;24126;-81
2021/06/28 00:37:49;;;;;;;7.35;4.20;;;19.70;99.90;;;;;;4993643;28;20110;-81
2021/06/28 00:40:17;;;;;;;4.93;4.20;;;19.70;99.90;;;;;;4992524;28;20584;-81
2021/06/28 00:42:42;;;;;;;6.88;4.35;;;19.70;99.90;;;;;;4992360;28;20145;-80
2021/06/28 00:45:25;;;;;;;5.65;4.18;;;19.60;99.90;;;;;;4992020;28;20065;-81
2021/06/28 00:47:54;;;;;;;6.07;4.40;;;19.60;99.90;;;;;;4993391;28;20492;-80
2021/06/28 00:50:22;;;;;;;5.43;4.22;;;19.60;99.90;;;;;;4992888;28;19910;-81
2021/06/28 00:52:52;;;;;;;5.50;4.20;;;19.60;99.90;;;;;;4995234;28;20400;-82
2021/06/28 00:55:17;;;;;;;5.40;4.38;;;19.50;99.90;;;;;;4995604;28;20481;-80
2021/06/28 00:57:44;;;;;;;6.63;4.25;;;19.50;99.90;;;;;;4996314;28;20029;-81
2021/06/28 01:00:12;;;;;;;4.77;4.13;;;19.50;99.90;;;;;;4997033;28;20004;-81
2021/06/28 01:02:38;;;;;;;4.82;4.25;;;19.50;99.90;;;;;;4997059;28;19952;-81
2021/06/28 01:05:11;;;;;;;7.20;5.05;;;19.40;99.90;;;;;;4997229;28;20500;-80
2021/06/28 01:07:37;;;;;;;6.10;4.97;;;19.40;99.90;;;;;;4995535;28;20049;-80
2021/06/28 01:10:04;;;;;;;6.63;4.77;;;19.50;99.90;;;;;;4995450;28;20482;-82
2021/06/28 01:12:30;;;;;;;;;;;19.50;99.90;;;;;;4995619;28;20024;-82
2021/06/28 01:14:56;;;;;;;;;;;19.50;99.90;;;;;;4995090;28;20138;-81
2021/06/28 01:17:22;;;;;;;5.90;4.55;;;19.50;99.90;;;;;;4995221;28;20046;-81
2021/06/28 01:19:59;;;;;;;5.85;4.90;;;19.50;99.90;;;;;;4995154;28;20028;-80
2021/06/28 01:22:26;;;;;;;;;;;19.50;99.90;;;;;;4994338;28;20117;-81
2021/06/28 01:24:58;;;;;;;4.05;3.67;;;19.50;99.90;;;;;;4995058;28;20373;-82
2021/06/28 01:27:26;;;;;;;7.57;5.03;;;19.40;99.90;;;;;;4995448;28;20116;-81
2021/06/28 01:29:52;;;;;;;5.35;4.80;;;19.50;99.90;;;;;;4994971;28;20393;-80
2021/06/28 01:32:19;;;;;;;5.88;4.68;;;19.50;99.90;;;;;;4995435;28;20030;-81
2021/06/28 01:34:45;;;;;;;;;;;19.50;99.90;;;;;;4995099;28;20395;-81
2021/06/28 01:37:12;;;;;;;6.25;4.90;;;19.40;99.90;;;;;;4994944;28;24074;-82
2021/06/28 01:39:38;;;;;;;8.63;5.70;;;19.40;99.90;;;;;;4995122;28;19914;-80
2021/06/28 01:42:04;;;;;;;8.30;4.68;;;19.40;99.90;;;;;;4994853;28;20026;-80
2021/06/28 01:44:31;;;;;;;6.55;5.00;;;19.40;99.90;;;;;;4994690;28;20373;-80
2021/06/28 01:46:57;;;;;;;6.07;5.10;;;19.40;99.90;;;;;;4994873;28;19964;-80
2021/06/28 01:49:23;;;;;;;13.37;5.33;;;19.40;99.90;;;;;;4995780;28;19950;-81
2021/06/28 01:51:48;;;;;;;5.63;4.95;;;19.30;99.90;;;;;;4993868;28;20091;-80
2021/06/28 01:54:17;;;;;;;7.30;5.20;;;19.30;99.90;;;;;;4994519;28;19932;-80
2021/06/28 01:56:43;;;;;;;7.55;5.30;;;19.30;99.90;;;;;;4995809;28;24064;-80
2021/06/28 01:59:09;;;;;;;6.67;4.97;;;19.30;99.90;;;;;;4994762;28;20049;-81
2021/06/28 02:01:34;;;;;;;7.90;4.85;;;19.30;99.90;;;;;;4993422;28;20569;-80
2021/06/28 02:04:00;;;;;;;6.03;4.65;;;19.30;99.90;;;;;;4995608;28;19928;-81
2021/06/28 02:06:25;;;;;;;5.53;4.93;;;19.30;99.90;;;;;;4994147;28;20157;-80
2021/06/28 02:08:51;;;;;;;5.40;4.28;;;19.30;99.90;;;;;;4994178;28;20466;-80
2021/06/28 02:11:17;;;;;;;8.50;5.43;;;19.30;99.90;;;;;;4994555;28;20026;-80
2021/06/28 02:13:42;;;;;;;5.95;4.18;;;19.30;99.90;;;;;;4994107;28;20026;-81
2021/06/28 02:16:08;;;;;;;5.97;4.80;;;19.30;99.90;;;;;;4994307;28;20470;-81
2021/06/28 02:18:34;;;;;;;7.30;5.50;;;19.30;99.90;;;;;;4994248;28;20029;-80
2021/06/28 02:21:01;;;;;;;6.32;5.45;;;19.30;99.90;;;;;;4994163;28;20030;-82
2021/06/28 02:23:32;;;;;;;6.40;5.35;;;19.30;99.90;;;;;;4993547;28;20111;-81
2021/06/28 02:26:02;;;;;;;6.88;4.60;;;19.30;99.90;;;;;;4994081;28;20118;-80
2021/06/28 02:28:33;;;;;;;6.90;5.47;;;19.30;99.90;;;;;;4994304;28;20022;-81
2021/06/28 02:31:00;;;;;;;5.75;4.95;;;19.40;99.90;;;;;;4994031;28;20552;-80
2021/06/28 02:33:26;;;;;;;7.68;5.10;;;19.40;99.90;;;;;;4994122;28;20409;-80
2021/06/28 02:35:53;;;;;;;7.77;5.43;;;19.40;99.90;;;;;;4994031;28;20380;-81
2021/06/28 02:38:19;;;;;;;7.78;5.72;;;19.40;99.90;;;;;;4993832;28;20034;-80
2021/06/28 02:40:44;;;;;;;5.28;4.38;;;19.40;99.90;;;;;;4993891;28;20034;-81
2021/06/28 02:43:10;;;;;;;6.45;5.15;;;19.40;99.90;;;;;;4993679;28;20030;-80
2021/06/28 02:45:36;;;;;;;5.53;4.65;;;19.40;99.90;;;;;;4994786;28;20030;-81
2021/06/28 02:48:03;;;;;;;6.75;5.13;;;19.40;99.90;;;;;;4996990;28;20054;-80
2021/06/28 02:50:28;;;;;;;4.80;4.38;;;19.40;99.90;;;;;;4994312;28;20037;-81
2021/06/28 02:52:54;;;;;;;6.60;4.90;;;19.40;99.90;;;;;;4994882;28;20464;-81
2021/06/28 02:55:19;;;;;;;6.53;5.28;;;19.40;99.90;;;;;;4996452;28;19905;-81
2021/06/28 02:57:45;;;;;;;5.10;4.28;;;19.40;99.90;;;;;;4996319;28;20008;-81
2021/06/28 03:00:14;;;;;;;5.82;4.50;;;19.40;99.90;;;;;;4996509;28;20301;-81
2021/06/28 03:02:40;;;;;;;5.93;4.63;;;19.40;99.90;;;;;;4998383;28;20123;-81
2021/06/28 03:05:07;;;;;;;6.00;4.68;;;19.40;99.90;;;;;;4996207;28;20025;-81
2021/06/28 03:07:34;;;;;;;5.32;4.70;;;19.40;99.90;;;;;;4996215;28;19909;-81
2021/06/28 03:10:00;;;;;;;6.38;5.68;;;19.50;99.90;;;;;;4996393;28;20037;-81
2021/06/28 03:12:25;;;;;;;7.60;4.90;;;19.40;99.90;;;;;;4995747;28;20297;-81
2021/06/28 03:14:51;;;;;;;5.95;5.30;;;19.40;99.90;;;;;;4995788;28;20022;-81
2021/06/28 03:17:17;;;;;;;7.88;6.25;;;19.40;99.90;;;;;;4995738;28;20065;-81
2021/06/28 03:19:42;;;;;;;8.73;5.32;;;19.40;99.90;;;;;;4997001;28;20377;-81
2021/06/28 03:22:08;;;;;;;6.22;5.45;;;19.40;99.90;;;;;;4995314;28;20006;-81
2021/06/28 03:24:34;;;;;;;5.75;4.93;;;19.40;99.90;;;;;;4995424;28;19906;-81
2021/06/28 03:26:59;;;;;;;7.35;5.65;;;19.40;99.90;;;;;;4997033;28;20023;-81
2021/06/28 03:29:25;;;;;;;6.22;5.47;;;19.40;99.90;;;;;;4995951;28;19965;-81
2021/06/28 03:31:51;;;;;;;9.10;6.00;;;19.40;99.90;;;;;;4995709;28;19910;-82
2021/06/28 03:34:16;;;;;;;7.40;5.43;;;19.50;99.90;;;;;;4995409;28;19916;-81
2021/06/28 03:36:42;;;;;;;6.22;5.18;;;19.50;99.90;;;;;;4995458;28;20137;-81
2021/06/28 03:39:09;;;;;;;8.27;5.38;;;19.50;99.90;;;;;;4996762;28;20035;-81
2021/06/28 03:41:34;;;;;;;7.68;5.97;;;19.60;99.90;;;;;;4997696;28;19957;-82
2021/06/28 03:44:00;;;;;;;9.50;6.40;;;19.60;99.90;;;;;;4995406;28;19917;-81
2021/06/28 03:46:26;;;;;;;10.00;6.43;;;19.60;99.90;;;;;;4998778;28;19909;-81
2021/06/28 03:48:52;;;;;;;9.85;5.82;;;19.60;99.90;;;;;;4995889;28;19910;-81
2021/06/28 03:51:17;;;;;;;9.00;5.50;;;19.70;99.90;;;;;;4995322;28;20026;-80
2021/06/28 03:53:43;;;;;;;8.65;5.90;;;19.70;99.90;;;;;;4997445;28;20041;-81
2021/06/28 03:56:09;;;;;;;7.65;6.07;;;19.80;99.90;;;;;;4995215;28;20064;-81
2021/06/28 03:58:38;;;;;;;9.43;5.55;;;19.80;99.90;;;;;;4995918;28;20485;-81
2021/06/28 04:01:05;;;;;;;7.07;5.40;;;19.90;99.90;;;;;;4997107;28;20504;-81
2021/06/28 04:03:32;;;;;;;;;;;19.90;99.90;;;;;;4995744;28;20026;-81
2021/06/28 04:06:02;;;;;;;8.88;6.20;;;19.90;99.90;;;;;;4996877;28;19906;-81
2021/06/28 04:08:28;;;;;;;;;;;20.00;99.90;;;;;;4997922;28;20101;-81
2021/06/28 04:10:53;;;;;;;;;;;20.10;99.90;;;;;;4997374;28;19944;-81
2021/06/28 04:13:19;;;;;;;;;;;20.10;99.90;;;;;;4994824;28;19906;-81
2021/06/28 04:15:45;;;;;;;;;;;20.10;99.90;;;;;;4995793;28;19955;-81
2021/06/28 04:18:10;;;;;;;6.60;5.85;;;20.10;99.90;;;;;;4998383;28;19993;-81
2021/06/28 04:20:36;;;;;;;;;;;20.10;99.90;;;;;;4996390;28;19917;-81
2021/06/28 04:23:02;;;;;;;7.10;5.80;;;20.00;99.90;;;;;;4995448;28;20056;-81
2021/06/28 04:25:27;;;;;;;11.50;6.35;;;20.00;99.90;;;;;;4997546;28;20290;-81
2021/06/28 04:27:53;;;;;;;6.80;5.40;;;20.10;99.90;;;;;;5000547;28;20391;-81
2021/06/28 04:30:20;;;;;;;6.63;5.53;;;20.00;99.90;;;;;;5001250;28;20376;-82
2021/06/28 04:32:47;;;;;;;6.22;5.15;;;20.00;99.90;;;;;;4999522;28;20271;-80
2021/06/28 04:35:15;;;;;;;12.30;7.37;;;20.00;99.90;;;;;;5000174;28;20026;-81
2021/06/28 04:37:41;;;;;;;8.57;5.25;;;20.00;99.90;;;;;;5002418;28;20403;-81
2021/06/28 04:40:08;;;;;;;;;;;20.00;99.90;;;;;;5001928;28;20037;-81
2021/06/28 04:42:34;;;;;;;7.95;5.57;;;20.10;99.90;;;;;;5002790;28;19960;-81
2021/06/28 04:44:59;;;;;;;5.07;4.57;;;20.00;99.90;;;;;;5002811;28;20116;-81
2021/06/28 04:47:25;;;;;;;9.00;5.78;;;20.10;99.90;;;;;;5003801;28;20087;-81
2021/06/28 04:49:51;;;;;;;6.88;4.40;;;20.10;99.90;;;;;;5003308;28;19912;-81
2021/06/28 04:52:17;;;;;;;6.68;5.45;;;20.10;99.90;;;;;;5003035;28;19922;-81
2021/06/28 04:54:43;;;;;;;23.75;7.25;;;20.20;99.90;;;;;;5001608;28;20066;-81
2021/06/28 04:57:09;;;;;;;5.63;4.80;;;20.50;99.90;;;;;;5003655;28;20030;-81
2021/06/28 04:59:34;;;;;;;;;;;20.80;99.90;;;;;;5001725;28;20035;-81
2021/06/28 05:02:00;;;;;;;;;;;21.20;99.90;;;;;;5004989;28;19910;-81
2021/06/28 05:04:26;;;;;;;;;;;21.20;99.90;;;;;;5004107;28;20303;-81
2021/06/28 05:06:52;;;;;;;5.40;4.60;;;21.20;99.90;;;;;;5003550;28;19916;-81
2021/06/28 05:09:17;;;;;;;;;;;21.30;99.90;;;;;;5006583;28;20031;-82
2021/06/28 05:11:43;;;;;;;;;;;21.20;99.90;;;;;;5004765;28;20043;-82
2021/06/28 05:14:08;;;;;;;;;;;21.30;99.90;;;;;;5005777;28;20711;-83
2021/06/28 05:16:34;;;;;;;7.20;4.75;;;21.40;99.90;;;;;;5007632;28;20452;-82
2021/06/28 05:18:59;;;;;;;;;;;21.50;99.90;;;;;;5006690;28;19913;-82
2021/06/28 05:21:25;;;;;;;;;;;21.80;99.90;;;;;;5003223;28;20038;-83
2021/06/28 05:23:51;;;;;;;4.35;3.75;;;22.10;99.90;;;;;;5006782;28;20047;-81
2021/06/28 05:26:16;;;;;;;5.27;4.17;;;22.30;99.90;;;;;;5010355;28;19906;-81
2021/06/28 05:28:42;;;;;;;5.40;4.55;;;22.40;99.90;;;;;;5009970;28;20577;-81
2021/06/28 05:31:08;;;;;;;7.30;4.23;;;22.50;99.90;;;;;;5011358;28;20030;-81
2021/06/28 05:33:34;;;;;;;4.50;3.47;;;22.40;99.90;;;;;;5009320;28;20026;-82
2021/06/28 05:35:59;;;;;;;4.85;3.70;;;22.30;99.90;;;;;;5009576;28;20022;-81
2021/06/28 05:38:25;;;;;;;5.30;3.75;;;22.20;99.90;;;;;;5009318;28;20027;-81
2021/06/28 05:40:51;;;;;;;5.15;4.05;;;22.40;99.90;;;;;;4998681;28;20026;-81
2021/06/28 05:43:16;;;;;;;4.13;3.00;;;22.60;99.90;;;;;;4996670;28;20484;-81
2021/06/28 05:45:42;;;;;;;5.10;3.00;;;22.90;99.90;;;;;;5005117;28;20512;-82
2021/06/28 05:48:08;;;;;;;5.22;3.13;;;23.10;99.90;;;;;;5036548;28;20056;-81
2021/06/28 05:50:33;;;;;;;4.23;2.93;;;23.20;99.90;;;;;;5023493;28;20031;-82
2021/06/28 05:52:59;;;;;;;2.77;2.57;;;23.20;99.90;;;;;;5029955;28;20029;-84
2021/06/28 05:55:26;;;;;;;3.57;2.80;;;23.30;99.90;;;;;;5036454;28;20548;-83
2021/06/28 05:57:51;;;;;;;8.70;3.40;;;23.20;99.90;;;;;;5038544;28;20033;-81
2021/06/28 06:00:19;;;;;;;8.27;4.17;;;23.50;99.90;;;;;;5036115;28;20514;-81
2021/06/28 06:02:45;;;;;;;4.90;3.40;;;23.70;99.90;;;;;;5020875;28;20025;-81
2021/06/28 06:05:11;;;;;;;4.90;3.50;;;23.90;99.90;;;;;;5015832;28;20535;-82
2021/06/28 06:07:38;;;;;;;5.85;3.80;;;24.20;99.90;;;;;;5015356;28;20026;-80
2021/06/28 06:10:08;;;;;;;;;;;24.30;99.90;;;;;;5016506;28;20080;-80
2021/06/28 06:12:33;;;;;;;;;;;24.50;99.90;;;;;;5015270;28;19905;-81
2021/06/28 06:14:58;;;;;;;;;;;24.70;99.90;;;;;;5016888;28;20435;-82
2021/06/28 06:17:24;;;;;;;;;;;25.00;99.90;;;;;;5016217;28;20275;-81
2021/06/28 06:19:49;;;;;;;;;;;25.30;99.90;;;;;;5015725;28;20001;-81
2021/06/28 06:22:15;;;;;;;;;;;25.50;99.90;;;;;;5015018;28;19905;-80
2021/06/28 06:24:41;;;;;;;;;;;25.60;99.90;;;;;;5017641;28;20323;-80
2021/06/28 06:27:07;;;;;;;;;;;25.80;99.90;;;;;;5016076;28;20080;-81
2021/06/28 06:29:33;;;;;;;;;;;25.80;99.90;;;;;;5015752;28;19947;-80
2021/06/28 06:31:58;;;;;;;;;;;25.90;99.90;;;;;;5015381;28;24061;-80
2021/06/28 06:34:24;;;;;;;;;;;26.10;99.90;;;;;;5014935;28;20467;-80
2021/06/28 06:36:50;;;;;;;;;;;27.50;99.90;;;;;;5015832;28;19911;-81
2021/06/28 06:39:16;;;;;;;;;;;28.20;99.90;;;;;;5001562;28;20274;-81
2021/06/28 06:41:42;;;;;;;;;;;27.60;99.90;;;;;;4995714;28;19913;-80
2021/06/28 06:44:07;;;;;;;;;;;27.20;99.90;;;;;;4994633;28;19937;-80
2021/06/28 06:46:33;;;;;;;;;;;27.10;99.90;;;;;;4995672;28;19906;-80
2021/06/28 06:48:59;;;;;;;;;;;27.30;99.90;;;;;;4994491;28;19916;-80
2021/06/28 06:51:26;;;;;;;;;;;27.30;99.90;;;;;;4995565;28;19936;-81
2021/06/28 06:53:51;;;;;;;;;;;27.50;99.90;;;;;;4995154;28;19906;-81
2021/06/28 06:56:17;;;;;;;;;;;27.40;99.90;;;;;;4995121;28;20025;-81
2021/06/28 06:58:43;;;;;;;;;;;27.40;99.90;;;;;;4996218;28;20047;-80
2021/06/28 07:01:12;;;;;;;;;;;27.20;99.90;;;;;;4994497;28;20035;-80
2021/06/28 07:03:37;;;;;;;;;;;27.00;99.90;;;;;;4994889;28;19972;-80
2021/06/28 07:06:03;;;;;;;;;;;27.10;99.90;;;;;;4994992;28;20494;-80
2021/06/28 07:08:29;;;;;;;;;;;26.90;99.90;;;;;;4997312;28;20017;-80
2021/06/28 07:10:54;;;;;;;;;;;27.20;99.90;;;;;;4995188;28;19963;-80
2021/06/28 07:13:20;;;;;;;;;;;27.50;99.90;;;;;;4995535;28;20083;-80
2021/06/28 07:15:45;;;;;;;;;;;27.90;99.90;;;;;;4997766;28;24071;-80
2021/06/28 07:18:11;;;;;;;;;;;27.50;99.90;;;;;;4999488;28;19941;-82
2021/06/28 07:20:36;;;;;;;;;;;26.60;99.90;;;;;;4997987;28;19952;-79
2021/06/28 07:23:02;;;;;;;;;;;26.40;99.90;;;;;;5032495;28;20104;-79
2021/06/28 07:25:28;;;;;;;;;;;26.30;99.90;;;;;;5004043;28;20335;-80
2021/06/28 07:27:53;;;;;;;;;;;26.20;99.90;;;;;;5006351;28;20078;-80
2021/06/28 07:30:21;;;;;;;;;;;26.50;99.90;;;;;;5005139;28;20067;-80
2021/06/28 07:32:47;;;;;;;;;;;27.00;99.90;;;;;;5005100;28;19956;-80
2021/06/28 07:35:13;;;;;;;;;;;27.60;99.90;;;;;;5008654;28;19973;-80
2021/06/28 07:37:39;;;;;;;;;;;27.70;99.90;;;;;;5008135;28;20272;-80
2021/06/28 07:40:06;;;;;;;;;;;28.40;99.90;;;;;;5017323;28;19913;-80
2021/06/28 07:42:31;;;;;;;;;;;28.50;99.90;;;;;;5016871;28;19913;-80
2021/06/28 07:44:57;;;;;;;;;;;28.60;99.90;;;;;;5016250;28;24066;-80
2021/06/28 07:47:22;;;;;;;;;;;28.30;99.90;;;;;;5018003;28;19928;-80
2021/06/28 07:49:48;;;;;;;;;;;28.10;99.90;;;;;;5018564;28;19933;-80
2021/06/28 07:52:13;;;;;;;;;;;28.40;99.90;;;;;;5017087;28;20379;-80
2021/06/28 07:54:43;;;;;;;;;;;28.10;99.90;;;;;;5019107;28;19912;-79
2021/06/28 07:57:08;;;;;;;;;;;27.70;99.90;;;;;;5018102;28;24080;-80
2021/06/28 07:59:34;;;;;;;;;;;27.40;99.90;;;;;;5019273;28;19920;-80
2021/06/28 08:01:59;;;;;;;;;;;27.60;99.90;;;;;;5022995;28;19912;-80
2021/06/28 08:04:27;;;;;;;;;;;28.20;99.90;;;;;;5024886;28;20095;-80
2021/06/28 08:06:53;;;;;;;;;;;28.60;99.90;;;;;;5022178;28;20360;-80
2021/06/28 08:09:18;;;;;;;;;;;29.00;99.90;;;;;;5020848;28;20008;-80
2021/06/28 08:11:44;;;;;;;;;;;29.00;99.90;;;;;;5023788;28;20033;-80
2021/06/28 08:14:10;;;;;;;;;;;29.30;99.90;;;;;;5021219;28;19912;-80
2021/06/28 08:16:35;;;;;;;;;;;29.10;99.90;;;;;;5025759;28;20339;-80
2021/06/28 08:19:01;;;;;;;;;;;29.10;99.90;;;;;;5026442;28;20029;-80
2021/06/28 08:21:26;;;;;;;;;;;29.30;99.90;;;;;;5027316;28;20025;-79
2021/06/28 08:23:52;;;;;;;;;;;29.70;99.90;;;;;;5024876;28;20033;-80
2021/06/28 08:26:17;;;;;;;;;;;29.50;99.90;;;;;;5025644;28;19905;-79
2021/06/28 08:28:45;;;;;;;;;;;29.00;99.90;;;;;;5019229;28;24141;-80
2021/06/28 08:31:11;;;;;;;;;;;28.70;99.90;;;;;;5015380;28;20023;-79
2021/06/28 08:33:36;;;;;;;;;;;28.10;99.90;;;;;;5015840;28;19944;-79
2021/06/28 08:36:02;;;;;;;;;;;27.70;99.90;;;;;;5016459;28;20077;-79
2021/06/28 08:38:27;;;;;;;;;;;27.10;99.90;;;;;;5016134;28;20788;-79
2021/06/28 08:40:53;;;;;;;2.20;2.00;;;26.70;99.90;;;;;;5001973;28;20117;-79
2021/06/28 08:43:19;;;;;;;;;;;26.70;99.90;;;;;;4995257;28;20308;-78
2021/06/28 08:45:45;;;;;;;;;;;26.90;99.90;;;;;;4997372;28;19913;-79
2021/06/28 08:48:10;;;;;;;;;;;27.10;99.90;;;;;;4998046;28;24062;-79
2021/06/28 08:50:37;;;;;;;;;;;27.60;99.90;;;;;;4995553;28;20380;-79
2021/06/28 08:53:03;;;;;;;;;;;27.60;99.90;;;;;;4994069;28;19912;-80
2021/06/28 08:55:28;;;;;;;;;;;27.60;99.90;;;;;;4993685;28;20344;-79
2021/06/28 08:57:54;;;;;;;;;;;27.90;99.90;;;;;;4993364;28;25011;-79
2021/06/28 09:00:20;;;;;;;;;;;28.20;99.90;;;;;;4992560;28;19916;-79
2021/06/28 09:02:59;;;;;;;;;;;29.10;99.90;;;;;;4992270;28;19912;-80
2021/06/28 09:05:26;;;;;;;;;;;29.70;99.90;;;;;;4996360;28;20063;-79
2021/06/28 09:08:08;;;;;;;;;;;30.00;99.90;;;;;;5013315;28;19905;-79
2021/06/28 09:10:35;;;;;;;;;;;29.80;99.90;;;;;;5001239;28;25116;-80
2021/06/28 09:13:01;;;;;;;;;;;29.30;99.90;;;;;;5008316;28;19912;-80
2021/06/28 09:15:36;;;;;;;;;;;28.70;99.90;;;;;;5009013;28;19905;-80
2021/06/28 09:18:28;;;;;;;;;;;28.40;99.90;;;;;;5008752;28;19905;-79
2021/06/28 09:21:07;;;;;;;;;;;28.10;99.90;;;;;;4989299;28;19909;-80
2021/06/28 09:23:32;;;;;;;;;;;27.90;99.90;;;;;;5004909;28;24060;-80
2021/06/28 09:25:59;;;;;;;;;;;27.50;99.90;;;;;;4991983;28;19905;-80
2021/06/28 09:28:38;;;;;;;;;;;27.30;99.90;;;;;;4993588;28;24082;-79
2021/06/28 09:31:04;;;;;;;;;;;27.00;99.90;;;;;;4990963;28;24078;-80
2021/06/28 09:33:29;;;;;;;;;;;27.20;99.90;;;;;;4996260;28;20296;-80
2021/06/28 09:35:55;;;;;;;;;;;27.90;99.90;;;;;;5002692;28;19953;-80
2021/06/28 09:38:30;;;;;;;;;;;28.80;99.90;;;;;;4993151;28;19996;-80
2021/06/28 09:40:56;;;;;;;;;;;29.60;99.90;;;;;;4992304;28;19917;-79
2021/06/28 09:43:21;;;;;;;;;;;29.70;99.90;;;;;;4992485;28;25057;-79
2021/06/28 09:45:48;;;;;;;;;;;29.70;99.90;;;;;;4991879;28;19996;-80
2021/06/28 09:48:30;;;;;;;;;;;29.70;99.90;;;;;;4994187;28;20388;-80
2021/06/28 09:51:25;;;;;;;;;;;30.20;99.90;;;;;;4991645;28;25052;-80
2021/06/28 09:54:15;;;;;;;;;;;29.80;99.90;;;;;;4999123;28;19906;-80
2021/06/28 09:56:42;;;;;;;;;;;29.10;99.90;;;;;;5003076;28;19960;-80
2021/06/28 09:59:23;;;;;;;;;;;28.50;99.90;;;;;;5000507;28;19948;-79
2021/06/28 10:01:50;;;;;;;;;;;28.20;99.90;;;;;;5001191;28;19912;-80
2021/06/28 10:04:41;;;;;;;;;;;28.40;99.90;;;;;;4997491;28;25150;-79
2021/06/28 10:07:19;;;;;;;;;;;28.30;99.90;;;;;;5005871;28;24068;-79
2021/06/28 10:09:44;;;;;;;;;;;28.40;99.90;;;;;;5010606;28;19991;-80
2021/06/28 10:12:19;;;;;;;;;;;29.10;99.90;;;;;;5010787;28;24174;-80
2021/06/28 10:14:45;;;;;;;;;;;29.70;99.90;;;;;;5010592;28;24074;-80
2021/06/28 10:17:11;;;;;;;;;;;29.90;99.90;;;;;;5009329;28;19906;-80
2021/06/28 10:19:37;;;;;;;;;;;30.00;99.90;;;;;;4991729;28;20387;-80
2021/06/28 10:22:03;;;;;;;;;;;30.20;99.90;;;;;;4991095;28;19910;-80
2021/06/28 10:24:28;;;;;;;;;;;30.60;99.90;;;;;;4990771;28;19912;-80
2021/06/28 10:26:55;;;;;;;;;;;29.70;99.90;;;;;;4993255;28;19945;-81
2021/06/28 10:29:20;;;;;;;;;;;29.60;99.90;;;;;;4991754;28;19906;-80
2021/06/28 10:31:45;;;;;;;;;;;29.80;99.90;;;;;;4990193;28;25061;-80
2021/06/28 10:34:13;;;;;;;;;;;30.10;99.90;;;;;;4991271;28;25131;-79
2021/06/28 10:36:39;;;;;;;;;;;30.80;99.90;;;;;;4991188;28;25057;-80
2021/06/28 10:39:06;;;;;;;;;;;30.90;99.90;;;;;;4992060;28;24069;-80
2021/06/28 10:41:42;;;;;;;;;;;30.90;99.90;;;;;;5030116;28;19920;-80
2021/06/28 10:44:10;;;;;;;;;;;30.60;99.90;;;;;;5030423;28;19966;-80
2021/06/28 10:46:37;;;;;;;;;;;30.50;99.90;;;;;;5030198;28;19909;-79
2021/06/28 10:49:03;;;;;;;;;;;30.70;99.90;;;;;;5031163;28;25118;-80
2021/06/28 10:51:46;;;;;;;;;;;30.90;99.90;;;;;;5031434;28;20300;-80
2021/06/28 10:54:18;;;;;;;;;;;31.10;99.90;;;;;;5024469;28;25054;-80
2021/06/28 10:56:48;;;;;;;;;;;31.10;99.90;;;;;;5010656;28;19905;-79
2021/06/28 10:59:14;;;;;;;;;;;31.00;99.90;;;;;;5011217;28;19916;-79
2021/06/28 11:01:44;;;;;;;;;;;31.40;99.90;;;;;;5009899;28;19905;-80
2021/06/28 11:04:11;;;;;;;;;;;31.30;99.90;;;;;;5009878;28;24057;-80
2021/06/28 11:06:52;;;;;;;;;;;31.20;99.90;;;;;;5011563;28;19998;-81
2021/06/28 11:09:32;;;;;;;;;;;31.60;99.90;;;;;;5009340;28;25155;-80
2021/06/28 11:11:57;;;;;;;;;;;31.50;99.90;;;;;;5009398;28;19910;-80
2021/06/28 11:14:23;;;;;;;;;;;31.70;99.90;;;;;;5003321;28;19905;-80
2021/06/28 11:17:09;;;;;;;;;;;31.60;99.90;;;;;;5000131;28;24079;-80
2021/06/28 11:20:05;;;;;;;;;;;31.50;99.90;;;;;;5002766;28;24062;-80
2021/06/28 11:22:35;;;;;;;;;;;31.30;99.90;;;;;;5002642;28;19998;-81
2021/06/28 11:25:04;;;;;;;;;;;31.70;99.90;;;;;;4998811;28;19910;-81
2021/06/28 11:27:29;;;;;;;;;;;31.30;99.90;;;;;;5007759;28;19949;-79
2021/06/28 11:29:55;;;;;;;;;;;31.40;99.90;;;;;;4996567;28;24099;-79
2021/06/28 11:32:21;;;;;;;;;;;31.50;99.90;;;;;;4990842;28;19906;-80
2021/06/28 11:34:47;;;;;;;;;;;31.20;99.90;;;;;;4990789;28;19906;-78
2021/06/28 11:37:12;;;;;;;;;;;31.00;99.90;;;;;;4995618;28;19915;-79
2021/06/28 11:39:53;;;;;;;;;;;30.90;99.90;;;;;;4998985;28;20036;-80
2021/06/28 11:42:20;;;;;;;;;;;31.10;99.90;;;;;;5000065;28;20029;-80
2021/06/28 11:44:49;;;;;;;;;;;30.90;99.90;;;;;;5001530;28;19918;-79
2021/06/28 11:47:15;;;;;;;;;;;30.80;99.90;;;;;;4995933;28;24132;-80
2021/06/28 11:49:40;;;;;;;;;;;30.90;99.90;;;;;;4989452;28;19906;-80
2021/06/28 11:52:13;;;;;;;;;;;30.70;99.90;;;;;;4989860;28;20022;-80
2021/06/28 11:54:39;;;;;;;;;;;30.90;99.90;;;;;;5000489;28;19913;-80
2021/06/28 11:57:06;;;;;;;;;;;31.20;99.90;;;;;;5010861;28;24134;-80
2021/06/28 11:59:32;;;;;;;;;;;31.30;99.90;;;;;;5009394;28;25056;-80
2021/06/28 12:02:00;;;;;;;;;;;31.20;99.90;;;;;;5009191;28;20430;-78
2021/06/28 12:04:27;;;;;;;;;;;30.80;99.90;;;;;;5012240;28;20025;-79
2021/06/28 12:06:54;;;;;;;;;;;30.60;99.90;;;;;;5008184;28;20028;-79
2021/06/28 12:09:19;;;;;;;;;;;30.80;99.90;;;;;;5011199;28;19905;-79
2021/06/28 12:11:52;;;;;;;;;;;30.60;99.90;;;;;;5010935;28;19956;-79
2021/06/28 12:14:39;;;;;;;;;;;30.70;99.90;;;;;;5010829;28;19906;-78
2021/06/28 12:17:07;;;;;;;;;;;30.80;99.90;;;;;;5011462;28;19993;-77
2021/06/28 12:19:33;;;;;;;;;;;31.10;99.90;;;;;;5010022;28;19909;-78
2021/06/28 12:22:06;;;;;;;;;;;31.40;99.90;;;;;;5011000;28;24059;-78
2021/06/28 12:24:31;;;;;;;;;;;31.20;99.90;;;;;;5010570;28;19913;-79
2021/06/28 12:27:01;;;;;;;;;;;31.20;99.90;;;;;;4997407;28;20475;-79
2021/06/28 12:29:34;;;;;;;;;;;31.40;99.90;;;;;;4996782;28;19906;-78
2021/06/28 12:32:06;;;;;;;;;;;31.40;99.90;;;;;;5010318;28;19906;-78
2021/06/28 12:34:32;;;;;;;;;;;31.20;99.90;;;;;;5010517;28;20330;-78
2021/06/28 12:36:58;;;;;;;;;;;31.40;99.90;;;;;;5009585;28;19905;-79
2021/06/28 12:39:24;;;;;;;;;;;31.40;99.90;;;;;;5008914;28;24142;-79
2021/06/28 12:41:50;;;;;;;;;;;31.30;99.90;;;;;;5011634;28;20362;-79
2021/06/28 12:44:16;;;;;;;;;;;31.20;99.90;;;;;;5009828;28;25050;-79
2021/06/28 12:46:43;;;;;;;;;;;31.20;99.90;;;;;;5012188;28;19948;-78
2021/06/28 12:49:08;;;;;;;;;;;31.40;99.90;;;;;;5014167;28;25132;-78
2021/06/28 12:51:34;;;;;;;;;;;31.50;99.90;;;;;;5015449;28;19905;-78
2021/06/28 12:53:59;;;;;;;;;;;31.70;99.90;;;;;;5015290;28;19906;-79
2021/06/28 12:56:30;;;;;;;;;;;31.90;99.90;;;;;;5013846;28;25088;-79
2021/06/28 12:58:57;;;;;;;;;;;32.10;99.90;;;;;;5013935;28;24094;-78
2021/06/28 13:01:41;;;;;;;;;;;32.30;99.90;;;;;;5013805;28;20324;-78
2021/06/28 13:04:17;;;;;;;;;;;32.30;99.90;;;;;;5014154;28;20063;-79
2021/06/28 13:06:42;;;;;;;;;;;32.10;99.90;;;;;;5015651;28;19906;-79
2021/06/28 13:09:15;;;;;;;;;;;31.90;99.90;;;;;;5014402;28;24081;-78
2021/06/28 13:11:50;;;;;;;;;;;31.30;99.90;;;;;;5015472;28;19905;-79
2021/06/28 13:14:36;;;;;;;;;;;30.60;99.90;;;;;;5015368;28;19956;-79
2021/06/28 13:17:16;;;;;;;;;;;30.10;99.90;;;;;;5014011;28;19909;-79
2021/06/28 13:19:42;;;;;;;;;;;29.80;99.90;;;;;;5014154;28;20327;-78
2021/06/28 13:22:08;;;;;;;;;;;29.90;99.90;;;;;;5013709;28;19906;-79
2021/06/28 13:24:34;;;;;;;;;;;30.00;99.90;;;;;;5013997;28;24071;-79
2021/06/28 13:27:03;;;;;;;;;;;30.20;99.90;;;;;;5004707;28;19917;-78
2021/06/28 13:29:37;;;;;;;;;;;30.00;99.90;;;;;;4994995;28;19906;-78
2021/06/28 13:32:03;;;;;;;;;;;30.10;99.90;;;;;;4993888;28;20018;-78
2021/06/28 13:34:34;;;;;;;;;;;30.10;99.90;;;;;;4996208;28;19976;-78
2021/06/28 13:37:05;;;;;;;;;;;30.20;99.90;;;;;;5001850;28;19924;-79
2021/06/28 13:39:33;;;;;;;;;;;30.20;99.90;;;;;;5005611;28;19909;-78
2021/06/28 13:41:59;;;;;;;;;;;30.70;99.90;;;;;;5007696;28;20281;-79